sensor_id;sensor_type;location;lat;lon;timestamp;P1;durP1;ratioP1;P2;durP2;ratioP2
62050;SDS011;48008;51.204;6.766;2022-07-22T00:00:36;23.42;;;8.07;;
62050;SDS011;48008;51.204;6.766;2022-07-22T00:03:03;23.35;;;8.20;;
62050;SDS011;48008;51.204;6.766;2022-07-22T00:05:30;26.27;;;7.88;;
62050;SDS011;48008;51.204;6.766;2022-07-22T00:07:56;21.90;;;8.38;;
62050;SDS011;48008;51.204;6.766;2022-07-22T00:10:23;21.77;;;7.38;;
62050;SDS011;48008;51.204;6.766;2022-07-22T00:12:50;18.00;;;8.05;;
62050;SDS011;48008;51.204;6.766;2022-07-22T00:15:16;24.63;;;8.45;;
62050;SDS011;48008;51.204;6.766;2022-07-22T00:17:43;26.20;;;8.10;;
62050;SDS011;48008;51.204;6.766;2022-07-22T00:20:10;17.10;;;8.10;;
62050;SDS011;48008;51.204;6.766;2022-07-22T00:22:36;22.38;;;7.88;;
62050;SDS011;48008;51.204;6.766;2022-07-22T00:25:03;24.33;;;8.10;;
62050;SDS011;48008;51.204;6.766;2022-07-22T00:27:31;23.65;;;8.23;;
62050;SDS011;48008;51.204;6.766;2022-07-22T00:29:57;22.67;;;7.72;;
62050;SDS011;48008;51.204;6.766;2022-07-22T00:32:24;21.02;;;8.23;;
62050;SDS011;48008;51.204;6.766;2022-07-22T00:34:51;21.25;;;8.18;;
62050;SDS011;48008;51.204;6.766;2022-07-22T00:37:18;22.83;;;8.70;;
62050;SDS011;48008;51.204;6.766;2022-07-22T00:39:45;23.10;;;7.97;;
62050;SDS011;48008;51.204;6.766;2022-07-22T00:42:15;20.45;;;8.48;;
62050;SDS011;48008;51.204;6.766;2022-07-22T00:44:42;26.15;;;8.38;;
62050;SDS011;48008;51.204;6.766;2022-07-22T00:47:09;27.40;;;8.98;;
62050;SDS011;48008;51.204;6.766;2022-07-22T00:49:36;24.38;;;9.57;;
62050;SDS011;48008;51.204;6.766;2022-07-22T00:52:03;27.00;;;9.82;;
62050;SDS011;48008;51.204;6.766;2022-07-22T00:54:32;30.02;;;9.75;;
62050;SDS011;48008;51.204;6.766;2022-07-22T00:56:59;26.85;;;10.02;;
62050;SDS011;48008;51.204;6.766;2022-07-22T00:59:26;23.83;;;9.88;;
62050;SDS011;48008;51.204;6.766;2022-07-22T01:01:53;31.85;;;10.05;;
62050;SDS011;48008;51.204;6.766;2022-07-22T01:04:20;25.17;;;9.18;;
62050;SDS011;48008;51.204;6.766;2022-07-22T01:06:47;21.35;;;9.30;;
62050;SDS011;48008;51.204;6.766;2022-07-22T01:09:14;22.20;;;8.88;;
62050;SDS011;48008;51.204;6.766;2022-07-22T01:11:40;24.42;;;9.77;;
62050;SDS011;48008;51.204;6.766;2022-07-22T01:14:07;29.50;;;10.15;;
62050;SDS011;48008;51.204;6.766;2022-07-22T01:16:34;25.58;;;10.35;;
62050;SDS011;48008;51.204;6.766;2022-07-22T01:19:02;27.38;;;10.40;;
62050;SDS011;48008;51.204;6.766;2022-07-22T01:21:29;28.40;;;10.30;;
62050;SDS011;48008;51.204;6.766;2022-07-22T01:23:57;23.02;;;9.88;;
62050;SDS011;48008;51.204;6.766;2022-07-22T01:26:24;24.52;;;10.57;;
62050;SDS011;48008;51.204;6.766;2022-07-22T01:28:52;26.42;;;10.60;;
62050;SDS011;48008;51.204;6.766;2022-07-22T01:31:19;31.40;;;9.88;;
62050;SDS011;48008;51.204;6.766;2022-07-22T01:33:46;25.40;;;10.52;;
62050;SDS011;48008;51.204;6.766;2022-07-22T01:36:13;21.58;;;11.52;;
62050;SDS011;48008;51.204;6.766;2022-07-22T01:38:40;23.13;;;11.18;;
62050;SDS011;48008;51.204;6.766;2022-07-22T01:41:07;30.98;;;10.63;;
62050;SDS011;48008;51.204;6.766;2022-07-22T01:43:36;25.70;;;10.88;;
62050;SDS011;48008;51.204;6.766;2022-07-22T01:46:03;28.80;;;11.65;;
62050;SDS011;48008;51.204;6.766;2022-07-22T01:48:33;22.60;;;10.60;;
62050;SDS011;48008;51.204;6.766;2022-07-22T01:51:00;26.50;;;10.13;;
62050;SDS011;48008;51.204;6.766;2022-07-22T01:53:27;20.48;;;10.18;;
62050;SDS011;48008;51.204;6.766;2022-07-22T01:55:53;25.48;;;10.68;;
62050;SDS011;48008;51.204;6.766;2022-07-22T01:58:20;25.23;;;10.02;;
62050;SDS011;48008;51.204;6.766;2022-07-22T02:00:47;26.83;;;9.70;;
62050;SDS011;48008;51.204;6.766;2022-07-22T02:03:14;26.20;;;10.65;;
62050;SDS011;48008;51.204;6.766;2022-07-22T02:05:41;33.80;;;10.57;;
62050;SDS011;48008;51.204;6.766;2022-07-22T02:08:18;24.40;;;10.85;;
62050;SDS011;48008;51.204;6.766;2022-07-22T02:11:04;25.42;;;10.95;;
62050;SDS011;48008;51.204;6.766;2022-07-22T02:13:31;21.33;;;10.43;;
62050;SDS011;48008;51.204;6.766;2022-07-22T02:15:58;23.83;;;11.48;;
62050;SDS011;48008;51.204;6.766;2022-07-22T02:18:25;26.88;;;10.32;;
62050;SDS011;48008;51.204;6.766;2022-07-22T02:20:52;30.02;;;11.15;;
62050;SDS011;48008;51.204;6.766;2022-07-22T02:23:19;24.90;;;11.02;;
62050;SDS011;48008;51.204;6.766;2022-07-22T02:25:45;23.10;;;11.40;;
62050;SDS011;48008;51.204;6.766;2022-07-22T02:28:12;26.17;;;11.23;;
62050;SDS011;48008;51.204;6.766;2022-07-22T02:30:39;22.77;;;10.65;;
62050;SDS011;48008;51.204;6.766;2022-07-22T02:33:06;25.05;;;11.63;;
62050;SDS011;48008;51.204;6.766;2022-07-22T02:35:33;22.83;;;10.30;;
62050;SDS011;48008;51.204;6.766;2022-07-22T02:38:00;26.10;;;11.77;;
62050;SDS011;48008;51.204;6.766;2022-07-22T02:40:27;23.48;;;10.25;;
62050;SDS011;48008;51.204;6.766;2022-07-22T02:42:54;23.27;;;10.30;;
62050;SDS011;48008;51.204;6.766;2022-07-22T02:45:22;22.90;;;8.77;;
62050;SDS011;48008;51.204;6.766;2022-07-22T02:47:50;23.92;;;9.43;;
62050;SDS011;48008;51.204;6.766;2022-07-22T02:50:19;27.55;;;9.65;;
62050;SDS011;48008;51.204;6.766;2022-07-22T02:52:47;23.02;;;9.35;;
62050;SDS011;48008;51.204;6.766;2022-07-22T02:55:16;20.30;;;9.20;;
62050;SDS011;48008;51.204;6.766;2022-07-22T02:57:44;18.35;;;9.00;;
62050;SDS011;48008;51.204;6.766;2022-07-22T03:00:12;22.33;;;9.07;;
62050;SDS011;48008;51.204;6.766;2022-07-22T03:02:40;23.83;;;9.27;;
62050;SDS011;48008;51.204;6.766;2022-07-22T03:05:07;28.08;;;8.73;;
62050;SDS011;48008;51.204;6.766;2022-07-22T03:07:41;21.58;;;8.30;;
62050;SDS011;48008;51.204;6.766;2022-07-22T03:10:10;18.35;;;8.40;;
62050;SDS011;48008;51.204;6.766;2022-07-22T03:12:36;21.75;;;8.05;;
62050;SDS011;48008;51.204;6.766;2022-07-22T03:15:04;25.88;;;8.52;;
62050;SDS011;48008;51.204;6.766;2022-07-22T03:17:34;17.88;;;8.30;;
62050;SDS011;48008;51.204;6.766;2022-07-22T03:20:04;23.52;;;8.32;;
62050;SDS011;48008;51.204;6.766;2022-07-22T03:22:32;21.88;;;7.93;;
62050;SDS011;48008;51.204;6.766;2022-07-22T03:25:00;23.30;;;8.38;;
62050;SDS011;48008;51.204;6.766;2022-07-22T03:27:27;17.73;;;7.40;;
62050;SDS011;48008;51.204;6.766;2022-07-22T03:29:54;24.10;;;8.15;;
62050;SDS011;48008;51.204;6.766;2022-07-22T03:32:20;17.45;;;7.32;;
62050;SDS011;48008;51.204;6.766;2022-07-22T03:34:47;22.88;;;8.40;;
62050;SDS011;48008;51.204;6.766;2022-07-22T03:37:15;16.55;;;8.20;;
62050;SDS011;48008;51.204;6.766;2022-07-22T03:39:43;15.38;;;7.43;;
62050;SDS011;48008;51.204;6.766;2022-07-22T03:42:10;16.58;;;7.47;;
62050;SDS011;48008;51.204;6.766;2022-07-22T03:44:44;20.42;;;7.35;;
62050;SDS011;48008;51.204;6.766;2022-07-22T03:47:16;22.23;;;7.55;;
62050;SDS011;48008;51.204;6.766;2022-07-22T03:49:45;17.10;;;7.30;;
62050;SDS011;48008;51.204;6.766;2022-07-22T03:52:12;15.45;;;7.05;;
62050;SDS011;48008;51.204;6.766;2022-07-22T03:54:40;15.45;;;7.10;;
62050;SDS011;48008;51.204;6.766;2022-07-22T03:57:07;18.45;;;8.05;;
62050;SDS011;48008;51.204;6.766;2022-07-22T03:59:35;17.58;;;7.07;;
62050;SDS011;48008;51.204;6.766;2022-07-22T04:02:04;28.60;;;8.65;;
62050;SDS011;48008;51.204;6.766;2022-07-22T04:04:31;19.00;;;8.30;;
62050;SDS011;48008;51.204;6.766;2022-07-22T04:06:59;23.75;;;8.32;;
62050;SDS011;48008;51.204;6.766;2022-07-22T04:09:32;19.88;;;7.93;;
62050;SDS011;48008;51.204;6.766;2022-07-22T04:11:59;19.27;;;7.78;;
62050;SDS011;48008;51.204;6.766;2022-07-22T04:14:26;20.45;;;8.13;;
62050;SDS011;48008;51.204;6.766;2022-07-22T04:16:56;23.63;;;8.57;;
62050;SDS011;48008;51.204;6.766;2022-07-22T04:19:22;25.08;;;8.60;;
62050;SDS011;48008;51.204;6.766;2022-07-22T04:21:52;21.90;;;8.23;;
62050;SDS011;48008;51.204;6.766;2022-07-22T04:24:22;21.85;;;8.38;;
62050;SDS011;48008;51.204;6.766;2022-07-22T04:26:49;28.17;;;9.43;;
62050;SDS011;48008;51.204;6.766;2022-07-22T04:29:15;25.58;;;10.55;;
62050;SDS011;48008;51.204;6.766;2022-07-22T04:31:42;27.67;;;11.68;;
62050;SDS011;48008;51.204;6.766;2022-07-22T04:34:13;23.25;;;10.82;;
62050;SDS011;48008;51.204;6.766;2022-07-22T04:36:40;29.42;;;11.05;;
62050;SDS011;48008;51.204;6.766;2022-07-22T04:39:07;25.67;;;11.07;;
62050;SDS011;48008;51.204;6.766;2022-07-22T04:41:37;24.02;;;9.30;;
62050;SDS011;48008;51.204;6.766;2022-07-22T04:44:03;23.90;;;9.48;;
62050;SDS011;48008;51.204;6.766;2022-07-22T04:46:32;24.55;;;9.73;;
62050;SDS011;48008;51.204;6.766;2022-07-22T04:49:00;23.63;;;9.00;;
62050;SDS011;48008;51.204;6.766;2022-07-22T04:51:26;20.63;;;8.07;;
62050;SDS011;48008;51.204;6.766;2022-07-22T04:54:00;19.35;;;7.82;;
62050;SDS011;48008;51.204;6.766;2022-07-22T04:56:27;20.65;;;8.40;;
62050;SDS011;48008;51.204;6.766;2022-07-22T04:58:54;31.50;;;8.40;;
62050;SDS011;48008;51.204;6.766;2022-07-22T05:01:27;27.00;;;7.88;;
62050;SDS011;48008;51.204;6.766;2022-07-22T05:03:54;25.52;;;10.23;;
62050;SDS011;48008;51.204;6.766;2022-07-22T05:06:21;23.02;;;8.77;;
62050;SDS011;48008;51.204;6.766;2022-07-22T05:08:51;26.08;;;8.38;;
62050;SDS011;48008;51.204;6.766;2022-07-22T05:11:18;22.30;;;9.43;;
62050;SDS011;48008;51.204;6.766;2022-07-22T05:13:46;25.45;;;10.25;;
62050;SDS011;48008;51.204;6.766;2022-07-22T05:16:13;26.98;;;10.10;;
62050;SDS011;48008;51.204;6.766;2022-07-22T05:18:40;27.40;;;11.63;;
62050;SDS011;48008;51.204;6.766;2022-07-22T05:21:09;25.27;;;11.82;;
62050;SDS011;48008;51.204;6.766;2022-07-22T05:23:36;28.92;;;12.30;;
62050;SDS011;48008;51.204;6.766;2022-07-22T05:26:04;27.88;;;12.13;;
62050;SDS011;48008;51.204;6.766;2022-07-22T05:28:32;25.17;;;11.40;;
62050;SDS011;48008;51.204;6.766;2022-07-22T05:30:59;26.95;;;10.77;;
62050;SDS011;48008;51.204;6.766;2022-07-22T05:33:26;23.63;;;9.02;;
62050;SDS011;48008;51.204;6.766;2022-07-22T05:36:02;20.13;;;8.50;;
62050;SDS011;48008;51.204;6.766;2022-07-22T05:38:35;24.40;;;7.82;;
62050;SDS011;48008;51.204;6.766;2022-07-22T05:41:02;21.02;;;8.43;;
62050;SDS011;48008;51.204;6.766;2022-07-22T05:43:29;18.65;;;7.53;;
62050;SDS011;48008;51.204;6.766;2022-07-22T05:45:56;21.98;;;6.82;;
62050;SDS011;48008;51.204;6.766;2022-07-22T05:48:23;20.58;;;6.10;;
62050;SDS011;48008;51.204;6.766;2022-07-22T05:50:52;18.15;;;6.20;;
62050;SDS011;48008;51.204;6.766;2022-07-22T05:53:18;17.67;;;4.55;;
62050;SDS011;48008;51.204;6.766;2022-07-22T05:55:45;17.35;;;4.22;;
62050;SDS011;48008;51.204;6.766;2022-07-22T05:58:12;19.83;;;4.28;;
62050;SDS011;48008;51.204;6.766;2022-07-22T06:00:39;18.20;;;3.67;;
62050;SDS011;48008;51.204;6.766;2022-07-22T06:03:06;14.40;;;3.67;;
62050;SDS011;48008;51.204;6.766;2022-07-22T06:05:33;17.40;;;3.60;;
62050;SDS011;48008;51.204;6.766;2022-07-22T06:08:05;16.05;;;3.92;;
62050;SDS011;48008;51.204;6.766;2022-07-22T06:10:42;17.58;;;3.97;;
62050;SDS011;48008;51.204;6.766;2022-07-22T06:13:09;12.35;;;3.50;;
62050;SDS011;48008;51.204;6.766;2022-07-22T06:15:38;14.80;;;4.20;;
62050;SDS011;48008;51.204;6.766;2022-07-22T06:18:05;16.17;;;4.18;;
62050;SDS011;48008;51.204;6.766;2022-07-22T06:20:32;12.45;;;3.90;;
62050;SDS011;48008;51.204;6.766;2022-07-22T06:22:59;13.85;;;4.10;;
62050;SDS011;48008;51.204;6.766;2022-07-22T06:25:25;17.65;;;4.15;;
62050;SDS011;48008;51.204;6.766;2022-07-22T06:28:18;19.02;;;3.92;;
62050;SDS011;48008;51.204;6.766;2022-07-22T06:30:44;18.95;;;4.60;;
62050;SDS011;48008;51.204;6.766;2022-07-22T06:33:12;18.45;;;4.22;;
62050;SDS011;48008;51.204;6.766;2022-07-22T06:35:39;18.30;;;4.05;;
62050;SDS011;48008;51.204;6.766;2022-07-22T06:38:06;18.42;;;3.88;;
62050;SDS011;48008;51.204;6.766;2022-07-22T06:40:53;15.00;;;3.80;;
62050;SDS011;48008;51.204;6.766;2022-07-22T06:43:36;13.55;;;3.92;;
62050;SDS011;48008;51.204;6.766;2022-07-22T06:46:21;19.83;;;4.78;;
62050;SDS011;48008;51.204;6.766;2022-07-22T06:48:51;13.68;;;4.65;;
62050;SDS011;48008;51.204;6.766;2022-07-22T06:51:19;14.85;;;4.75;;
62050;SDS011;48008;51.204;6.766;2022-07-22T06:53:46;13.07;;;4.57;;
62050;SDS011;48008;51.204;6.766;2022-07-22T06:56:13;13.60;;;4.82;;
62050;SDS011;48008;51.204;6.766;2022-07-22T06:58:41;15.52;;;4.63;;
62050;SDS011;48008;51.204;6.766;2022-07-22T07:01:09;13.85;;;4.60;;
62050;SDS011;48008;51.204;6.766;2022-07-22T07:03:48;13.63;;;4.50;;
62050;SDS011;48008;51.204;6.766;2022-07-22T07:06:15;17.80;;;4.35;;
62050;SDS011;48008;51.204;6.766;2022-07-22T07:09:02;24.85;;;4.85;;
62050;SDS011;48008;51.204;6.766;2022-07-22T07:11:30;21.10;;;5.07;;
62050;SDS011;48008;51.204;6.766;2022-07-22T07:13:57;19.35;;;4.93;;
62050;SDS011;48008;51.204;6.766;2022-07-22T07:16:24;19.60;;;5.20;;
62050;SDS011;48008;51.204;6.766;2022-07-22T07:18:52;16.42;;;5.10;;
62050;SDS011;48008;51.204;6.766;2022-07-22T07:21:19;21.65;;;5.63;;
62050;SDS011;48008;51.204;6.766;2022-07-22T07:23:46;20.52;;;5.30;;
62050;SDS011;48008;51.204;6.766;2022-07-22T07:26:13;17.52;;;6.05;;
62050;SDS011;48008;51.204;6.766;2022-07-22T07:28:40;21.83;;;6.45;;
62050;SDS011;48008;51.204;6.766;2022-07-22T07:31:12;18.48;;;5.68;;
62050;SDS011;48008;51.204;6.766;2022-07-22T07:33:40;17.20;;;5.95;;
62050;SDS011;48008;51.204;6.766;2022-07-22T07:36:07;19.05;;;6.65;;
62050;SDS011;48008;51.204;6.766;2022-07-22T07:38:38;22.33;;;6.50;;
62050;SDS011;48008;51.204;6.766;2022-07-22T07:41:09;24.23;;;7.60;;
62050;SDS011;48008;51.204;6.766;2022-07-22T07:43:37;22.40;;;7.60;;
62050;SDS011;48008;51.204;6.766;2022-07-22T07:46:04;25.85;;;9.80;;
62050;SDS011;48008;51.204;6.766;2022-07-22T07:48:31;22.30;;;8.77;;
62050;SDS011;48008;51.204;6.766;2022-07-22T07:50:59;19.52;;;9.00;;
62050;SDS011;48008;51.204;6.766;2022-07-22T07:53:26;23.17;;;10.00;;
62050;SDS011;48008;51.204;6.766;2022-07-22T07:55:53;26.33;;;10.85;;
62050;SDS011;48008;51.204;6.766;2022-07-22T07:58:21;25.90;;;11.48;;
62050;SDS011;48008;51.204;6.766;2022-07-22T08:00:48;27.75;;;11.43;;
62050;SDS011;48008;51.204;6.766;2022-07-22T08:03:15;30.85;;;11.82;;
62050;SDS011;48008;51.204;6.766;2022-07-22T08:05:42;25.80;;;10.50;;
62050;SDS011;48008;51.204;6.766;2022-07-22T08:08:14;25.55;;;11.68;;
62050;SDS011;48008;51.204;6.766;2022-07-22T08:10:42;26.10;;;10.60;;
62050;SDS011;48008;51.204;6.766;2022-07-22T08:13:45;28.27;;;9.60;;
62050;SDS011;48008;51.204;6.766;2022-07-22T08:16:28;38.38;;;10.63;;
62050;SDS011;48008;51.204;6.766;2022-07-22T08:18:55;32.33;;;12.07;;
62050;SDS011;48008;51.204;6.766;2022-07-22T08:21:22;30.00;;;11.85;;
62050;SDS011;48008;51.204;6.766;2022-07-22T08:23:53;27.73;;;10.60;;
62050;SDS011;48008;51.204;6.766;2022-07-22T08:26:20;25.52;;;11.35;;
62050;SDS011;48008;51.204;6.766;2022-07-22T08:28:47;23.73;;;10.70;;
62050;SDS011;48008;51.204;6.766;2022-07-22T08:31:13;25.90;;;11.65;;
62050;SDS011;48008;51.204;6.766;2022-07-22T08:33:41;28.75;;;10.55;;
62050;SDS011;48008;51.204;6.766;2022-07-22T08:36:07;27.17;;;9.82;;
62050;SDS011;48008;51.204;6.766;2022-07-22T08:38:34;29.90;;;10.85;;
62050;SDS011;48008;51.204;6.766;2022-07-22T08:41:02;30.92;;;12.07;;
62050;SDS011;48008;51.204;6.766;2022-07-22T08:43:33;25.25;;;11.27;;
62050;SDS011;48008;51.204;6.766;2022-07-22T08:46:02;30.42;;;11.32;;
62050;SDS011;48008;51.204;6.766;2022-07-22T08:48:39;31.75;;;11.57;;
62050;SDS011;48008;51.204;6.766;2022-07-22T08:51:26;32.70;;;11.70;;
62050;SDS011;48008;51.204;6.766;2022-07-22T08:53:58;27.73;;;11.30;;
62050;SDS011;48008;51.204;6.766;2022-07-22T08:56:26;37.47;;;11.75;;
62050;SDS011;48008;51.204;6.766;2022-07-22T08:58:52;29.98;;;11.20;;
62050;SDS011;48008;51.204;6.766;2022-07-22T09:01:19;32.88;;;12.07;;
62050;SDS011;48008;51.204;6.766;2022-07-22T09:03:52;32.72;;;12.55;;
62050;SDS011;48008;51.204;6.766;2022-07-22T09:06:26;33.53;;;11.85;;
62050;SDS011;48008;51.204;6.766;2022-07-22T09:09:01;33.85;;;11.70;;
62050;SDS011;48008;51.204;6.766;2022-07-22T09:11:50;40.17;;;13.27;;
62050;SDS011;48008;51.204;6.766;2022-07-22T09:14:51;33.30;;;11.90;;
62050;SDS011;48008;51.204;6.766;2022-07-22T09:17:39;34.80;;;11.80;;
62050;SDS011;48008;51.204;6.766;2022-07-22T09:20:26;26.27;;;11.77;;
62050;SDS011;48008;51.204;6.766;2022-07-22T09:23:14;30.38;;;12.32;;
62050;SDS011;48008;51.204;6.766;2022-07-22T09:25:45;35.45;;;13.35;;
62050;SDS011;48008;51.204;6.766;2022-07-22T09:28:31;36.63;;;14.07;;
62050;SDS011;48008;51.204;6.766;2022-07-22T09:31:23;36.40;;;13.30;;
62050;SDS011;48008;51.204;6.766;2022-07-22T09:33:55;41.88;;;13.00;;
62050;SDS011;48008;51.204;6.766;2022-07-22T09:36:24;40.40;;;14.93;;
62050;SDS011;48008;51.204;6.766;2022-07-22T09:38:53;35.33;;;14.18;;
62050;SDS011;48008;51.204;6.766;2022-07-22T09:41:20;40.00;;;14.07;;
62050;SDS011;48008;51.204;6.766;2022-07-22T09:43:47;36.65;;;14.23;;
62050;SDS011;48008;51.204;6.766;2022-07-22T09:46:16;33.03;;;12.73;;
62050;SDS011;48008;51.204;6.766;2022-07-22T09:49:03;32.53;;;12.93;;
62050;SDS011;48008;51.204;6.766;2022-07-22T09:51:35;38.75;;;13.75;;
62050;SDS011;48008;51.204;6.766;2022-07-22T09:54:16;37.97;;;14.00;;
62050;SDS011;48008;51.204;6.766;2022-07-22T09:56:43;40.85;;;13.77;;
62050;SDS011;48008;51.204;6.766;2022-07-22T09:59:12;37.15;;;13.75;;
62050;SDS011;48008;51.204;6.766;2022-07-22T10:01:42;39.75;;;16.05;;
62050;SDS011;48008;51.204;6.766;2022-07-22T10:04:09;38.33;;;15.07;;
62050;SDS011;48008;51.204;6.766;2022-07-22T10:06:38;43.25;;;15.82;;
62050;SDS011;48008;51.204;6.766;2022-07-22T10:09:11;37.65;;;14.95;;
62050;SDS011;48008;51.204;6.766;2022-07-22T10:11:41;41.47;;;16.10;;
62050;SDS011;48008;51.204;6.766;2022-07-22T10:14:14;35.10;;;14.65;;
62050;SDS011;48008;51.204;6.766;2022-07-22T10:16:47;43.22;;;15.18;;
62050;SDS011;48008;51.204;6.766;2022-07-22T10:19:14;39.53;;;15.77;;
62050;SDS011;48008;51.204;6.766;2022-07-22T10:21:41;41.92;;;16.70;;
62050;SDS011;48008;51.204;6.766;2022-07-22T10:24:11;44.40;;;16.73;;
62050;SDS011;48008;51.204;6.766;2022-07-22T10:26:49;40.35;;;16.77;;
62050;SDS011;48008;51.204;6.766;2022-07-22T10:29:49;37.13;;;15.90;;
62050;SDS011;48008;51.204;6.766;2022-07-22T10:32:21;42.78;;;16.38;;
62050;SDS011;48008;51.204;6.766;2022-07-22T10:37:40;39.42;;;16.13;;
62050;SDS011;48008;51.204;6.766;2022-07-22T10:40:13;42.90;;;16.88;;
62050;SDS011;48008;51.204;6.766;2022-07-22T10:45:31;39.75;;;17.00;;
62050;SDS011;48008;51.204;6.766;2022-07-22T10:48:00;39.88;;;16.25;;
62050;SDS011;48008;51.204;6.766;2022-07-22T10:53:14;42.72;;;18.48;;
62050;SDS011;48008;51.204;6.766;2022-07-22T10:56:05;37.60;;;18.08;;
62050;SDS011;48008;51.204;6.766;2022-07-22T10:58:39;38.83;;;18.73;;
62050;SDS011;48008;51.204;6.766;2022-07-22T11:01:08;45.97;;;19.23;;
62050;SDS011;48008;51.204;6.766;2022-07-22T11:03:38;46.92;;;18.95;;
62050;SDS011;48008;51.204;6.766;2022-07-22T11:06:23;45.33;;;19.08;;
62050;SDS011;48008;51.204;6.766;2022-07-22T11:08:52;42.63;;;19.48;;
62050;SDS011;48008;51.204;6.766;2022-07-22T11:11:53;44.60;;;19.50;;
62050;SDS011;48008;51.204;6.766;2022-07-22T11:14:11;45.97;;;20.02;;
62050;SDS011;48008;51.204;6.766;2022-07-22T11:16:39;39.72;;;19.65;;
62050;SDS011;48008;51.204;6.766;2022-07-22T11:19:06;43.08;;;20.77;;
62050;SDS011;48008;51.204;6.766;2022-07-22T11:21:33;45.38;;;19.55;;
62050;SDS011;48008;51.204;6.766;2022-07-22T11:24:05;40.70;;;19.50;;
62050;SDS011;48008;51.204;6.766;2022-07-22T11:26:41;44.05;;;20.08;;
62050;SDS011;48008;51.204;6.766;2022-07-22T11:29:24;46.90;;;20.75;;
62050;SDS011;48008;51.204;6.766;2022-07-22T11:31:55;45.05;;;21.75;;
62050;SDS011;48008;51.204;6.766;2022-07-22T11:34:24;45.10;;;20.50;;
62050;SDS011;48008;51.204;6.766;2022-07-22T11:36:52;39.67;;;19.48;;
62050;SDS011;48008;51.204;6.766;2022-07-22T11:39:20;36.67;;;18.10;;
62050;SDS011;48008;51.204;6.766;2022-07-22T11:41:49;37.78;;;18.38;;
62050;SDS011;48008;51.204;6.766;2022-07-22T11:44:19;41.03;;;20.05;;
62050;SDS011;48008;51.204;6.766;2022-07-22T11:46:47;36.45;;;18.27;;
62050;SDS011;48008;51.204;6.766;2022-07-22T11:49:15;35.65;;;17.90;;
62050;SDS011;48008;51.204;6.766;2022-07-22T11:51:43;37.95;;;18.15;;
62050;SDS011;48008;51.204;6.766;2022-07-22T11:54:10;37.67;;;17.60;;
62050;SDS011;48008;51.204;6.766;2022-07-22T11:56:39;35.13;;;18.35;;
62050;SDS011;48008;51.204;6.766;2022-07-22T11:59:06;33.00;;;17.42;;
62050;SDS011;48008;51.204;6.766;2022-07-22T12:01:35;34.35;;;18.00;;
62050;SDS011;48008;51.204;6.766;2022-07-22T12:04:05;35.97;;;17.85;;
62050;SDS011;48008;51.204;6.766;2022-07-22T12:06:34;36.95;;;17.83;;
62050;SDS011;48008;51.204;6.766;2022-07-22T12:09:05;41.17;;;18.80;;
62050;SDS011;48008;51.204;6.766;2022-07-22T12:11:43;39.95;;;19.67;;
62050;SDS011;48008;51.204;6.766;2022-07-22T12:14:15;37.97;;;19.27;;
62050;SDS011;48008;51.204;6.766;2022-07-22T12:16:52;40.42;;;19.67;;
62050;SDS011;48008;51.204;6.766;2022-07-22T12:19:23;48.13;;;20.17;;
62050;SDS011;48008;51.204;6.766;2022-07-22T12:21:53;41.88;;;20.98;;
62050;SDS011;48008;51.204;6.766;2022-07-22T12:24:25;43.10;;;20.67;;
62050;SDS011;48008;51.204;6.766;2022-07-22T12:26:54;38.05;;;19.25;;
62050;SDS011;48008;51.204;6.766;2022-07-22T12:29:24;42.20;;;20.45;;
62050;SDS011;48008;51.204;6.766;2022-07-22T12:31:54;41.65;;;19.30;;
62050;SDS011;48008;51.204;6.766;2022-07-22T12:34:32;39.20;;;18.43;;
62050;SDS011;48008;51.204;6.766;2022-07-22T12:37:16;39.65;;;17.05;;
62050;SDS011;48008;51.204;6.766;2022-07-22T12:39:56;34.03;;;16.80;;
62050;SDS011;48008;51.204;6.766;2022-07-22T12:42:38;31.92;;;16.15;;
62050;SDS011;48008;51.204;6.766;2022-07-22T12:45:08;29.73;;;14.52;;
62050;SDS011;48008;51.204;6.766;2022-07-22T12:50:17;34.65;;;14.85;;
62050;SDS011;48008;51.204;6.766;2022-07-22T12:52:47;28.80;;;14.73;;
62050;SDS011;48008;51.204;6.766;2022-07-22T12:55:36;26.35;;;13.18;;
62050;SDS011;48008;51.204;6.766;2022-07-22T12:58:06;29.98;;;14.73;;
62050;SDS011;48008;51.204;6.766;2022-07-22T13:00:36;28.38;;;14.60;;
62050;SDS011;48008;51.204;6.766;2022-07-22T13:03:05;28.27;;;14.48;;
62050;SDS011;48008;51.204;6.766;2022-07-22T13:05:32;31.80;;;16.30;;
62050;SDS011;48008;51.204;6.766;2022-07-22T13:08:00;35.78;;;15.75;;
62050;SDS011;48008;51.204;6.766;2022-07-22T13:10:28;35.42;;;16.73;;
62050;SDS011;48008;51.204;6.766;2022-07-22T13:12:55;34.75;;;16.35;;
62050;SDS011;48008;51.204;6.766;2022-07-22T13:15:21;33.20;;;16.42;;
62050;SDS011;48008;51.204;6.766;2022-07-22T13:17:49;36.10;;;15.23;;
62050;SDS011;48008;51.204;6.766;2022-07-22T13:20:17;30.60;;;15.90;;
62050;SDS011;48008;51.204;6.766;2022-07-22T13:22:47;36.00;;;16.30;;
62050;SDS011;48008;51.204;6.766;2022-07-22T13:25:14;30.88;;;15.02;;
62050;SDS011;48008;51.204;6.766;2022-07-22T13:27:41;26.75;;;14.02;;
62050;SDS011;48008;51.204;6.766;2022-07-22T13:30:08;27.90;;;14.57;;
62050;SDS011;48008;51.204;6.766;2022-07-22T13:32:35;29.25;;;14.52;;
62050;SDS011;48008;51.204;6.766;2022-07-22T13:35:12;28.75;;;14.15;;
62050;SDS011;48008;51.204;6.766;2022-07-22T13:37:39;28.35;;;14.40;;
62050;SDS011;48008;51.204;6.766;2022-07-22T13:40:06;26.35;;;14.93;;
62050;SDS011;48008;51.204;6.766;2022-07-22T13:42:34;30.10;;;14.40;;
62050;SDS011;48008;51.204;6.766;2022-07-22T13:45:00;23.15;;;12.60;;
62050;SDS011;48008;51.204;6.766;2022-07-22T13:47:27;25.05;;;13.13;;
62050;SDS011;48008;51.204;6.766;2022-07-22T13:49:54;23.80;;;13.55;;
62050;SDS011;48008;51.204;6.766;2022-07-22T13:52:22;30.70;;;14.95;;
62050;SDS011;48008;51.204;6.766;2022-07-22T13:54:50;28.38;;;13.60;;
62050;SDS011;48008;51.204;6.766;2022-07-22T13:57:17;27.88;;;13.48;;
62050;SDS011;48008;51.204;6.766;2022-07-22T13:59:46;32.75;;;14.43;;
62050;SDS011;48008;51.204;6.766;2022-07-22T14:02:13;28.23;;;14.10;;
62050;SDS011;48008;51.204;6.766;2022-07-22T14:04:40;26.15;;;13.10;;
62050;SDS011;48008;51.204;6.766;2022-07-22T14:07:07;23.27;;;12.82;;
62050;SDS011;48008;51.204;6.766;2022-07-22T14:09:37;29.40;;;15.27;;
62050;SDS011;48008;51.204;6.766;2022-07-22T14:12:04;29.38;;;15.43;;
62050;SDS011;48008;51.204;6.766;2022-07-22T14:14:31;28.73;;;16.77;;
62050;SDS011;48008;51.204;6.766;2022-07-22T14:16:57;26.38;;;15.68;;
62050;SDS011;48008;51.204;6.766;2022-07-22T14:19:24;37.67;;;19.58;;
62050;SDS011;48008;51.204;6.766;2022-07-22T14:21:51;31.42;;;15.90;;
62050;SDS011;48008;51.204;6.766;2022-07-22T14:24:18;38.22;;;20.02;;
62050;SDS011;48008;51.204;6.766;2022-07-22T14:26:45;34.47;;;18.00;;
62050;SDS011;48008;51.204;6.766;2022-07-22T14:29:11;33.17;;;19.30;;
62050;SDS011;48008;51.204;6.766;2022-07-22T14:31:38;35.33;;;19.95;;
62050;SDS011;48008;51.204;6.766;2022-07-22T14:34:05;40.42;;;20.05;;
62050;SDS011;48008;51.204;6.766;2022-07-22T14:36:33;41.92;;;21.30;;
62050;SDS011;48008;51.204;6.766;2022-07-22T14:38:59;35.00;;;19.60;;
62050;SDS011;48008;51.204;6.766;2022-07-22T14:41:26;33.33;;;18.30;;
62050;SDS011;48008;51.204;6.766;2022-07-22T14:43:53;34.88;;;20.63;;
62050;SDS011;48008;51.204;6.766;2022-07-22T14:46:20;34.97;;;20.42;;
62050;SDS011;48008;51.204;6.766;2022-07-22T14:48:46;39.30;;;19.73;;
62050;SDS011;48008;51.204;6.766;2022-07-22T14:51:19;31.90;;;18.05;;